sensor_id;sensor_type;location;lat;lon;timestamp;temperature;humidity
70867;HTU21D;58487;53.474;49.470;2023-01-16T00:01:26;-9.58;59.94
70867;HTU21D;58487;53.474;49.470;2023-01-16T00:03:52;-9.59;59.83
70867;HTU21D;58487;53.474;49.470;2023-01-16T00:06:18;-9.60;59.82
70867;HTU21D;58487;53.474;49.470;2023-01-16T00:08:44;-9.63;60.13
70867;HTU21D;58487;53.474;49.470;2023-01-16T00:11:11;-9.69;60.01
70867;HTU21D;58487;53.474;49.470;2023-01-16T00:13:37;-9.64;60.16
70867;HTU21D;58487;53.474;49.470;2023-01-16T00:16:04;-9.60;60.21
70867;HTU21D;58487;53.474;49.470;2023-01-16T00:18:30;-9.64;60.24
70867;HTU21D;58487;53.474;49.470;2023-01-16T00:20:56;-9.69;60.27
70867;HTU21D;58487;53.474;49.470;2023-01-16T00:23:22;-9.72;60.31
70867;HTU21D;58487;53.474;49.470;2023-01-16T00:25:48;-9.72;60.49
70867;HTU21D;58487;53.474;49.470;2023-01-16T00:28:15;-9.77;60.63
70867;HTU21D;58487;53.474;49.470;2023-01-16T00:30:41;-9.82;60.76
70867;HTU21D;58487;53.474;49.470;2023-01-16T00:33:08;-9.82;60.77
70867;HTU21D;58487;53.474;49.470;2023-01-16T00:35:35;-9.79;60.76
70867;HTU21D;58487;53.474;49.470;2023-01-16T00:38:01;-9.79;60.64
70867;HTU21D;58487;53.474;49.470;2023-01-16T00:40:27;-9.81;60.64
70867;HTU21D;58487;53.474;49.470;2023-01-16T00:42:53;-9.81;60.74
70867;HTU21D;58487;53.474;49.470;2023-01-16T00:45:19;-9.83;60.88
70867;HTU21D;58487;53.474;49.470;2023-01-16T00:47:45;-9.83;60.67
70867;HTU21D;58487;53.474;49.470;2023-01-16T00:50:11;-9.86;60.81
70867;HTU21D;58487;53.474;49.470;2023-01-16T00:52:37;-9.87;60.95
70867;HTU21D;58487;53.474;49.470;2023-01-16T00:55:04;-9.88;60.89
70867;HTU21D;58487;53.474;49.470;2023-01-16T00:57:30;-9.89;60.93
70867;HTU21D;58487;53.474;49.470;2023-01-16T00:59:56;-9.88;61.15
70867;HTU21D;58487;53.474;49.470;2023-01-16T01:02:22;-9.89;60.87
70867;HTU21D;58487;53.474;49.470;2023-01-16T01:04:48;-9.90;61.13
70867;HTU21D;58487;53.474;49.470;2023-01-16T01:07:14;-9.89;61.01
70867;HTU21D;58487;53.474;49.470;2023-01-16T01:09:40;-9.91;61.13
70867;HTU21D;58487;53.474;49.470;2023-01-16T01:12:06;-9.92;61.13
70867;HTU21D;58487;53.474;49.470;2023-01-16T01:14:32;-9.94;61.21
70867;HTU21D;58487;53.474;49.470;2023-01-16T01:16:58;-9.94;61.44
70867;HTU21D;58487;53.474;49.470;2023-01-16T01:19:24;-10.01;61.56
70867;HTU21D;58487;53.474;49.470;2023-01-16T01:21:50;-10.01;61.65
70867;HTU21D;58487;53.474;49.470;2023-01-16T01:24:16;-10.01;61.76
70867;HTU21D;58487;53.474;49.470;2023-01-16T01:26:42;-10.01;61.79
70867;HTU21D;58487;53.474;49.470;2023-01-16T01:29:08;-10.01;61.70
70867;HTU21D;58487;53.474;49.470;2023-01-16T01:31:34;-10.05;61.82
70867;HTU21D;58487;53.474;49.470;2023-01-16T01:34:01;-10.10;61.99
70867;HTU21D;58487;53.474;49.470;2023-01-16T01:36:27;-10.12;62.00
70867;HTU21D;58487;53.474;49.470;2023-01-16T01:38:53;-10.15;62.12
70867;HTU21D;58487;53.474;49.470;2023-01-16T01:41:19;-10.17;62.32
70867;HTU21D;58487;53.474;49.470;2023-01-16T01:43:49;-10.21;62.46
70867;HTU21D;58487;53.474;49.470;2023-01-16T01:46:28;-10.20;62.21
70867;HTU21D;58487;53.474;49.470;2023-01-16T01:49:14;-10.19;62.31
70867;HTU21D;58487;53.474;49.470;2023-01-16T01:51:43;-10.28;62.73
70867;HTU21D;58487;53.474;49.470;2023-01-16T01:54:17;-10.32;62.82
70867;HTU21D;58487;53.474;49.470;2023-01-16T01:56:49;-10.31;62.98
70867;HTU21D;58487;53.474;49.470;2023-01-16T01:59:30;-10.35;63.17
70867;HTU21D;58487;53.474;49.470;2023-01-16T02:01:59;-10.36;63.26
70867;HTU21D;58487;53.474;49.470;2023-01-16T02:04:32;-10.37;63.24
70867;HTU21D;58487;53.474;49.470;2023-01-16T02:07:02;-10.33;63.23
70867;HTU21D;58487;53.474;49.470;2023-01-16T02:09:28;-10.34;63.25
70867;HTU21D;58487;53.474;49.470;2023-01-16T02:11:58;-10.32;62.95
70867;HTU21D;58487;53.474;49.470;2023-01-16T02:14:35;-10.38;62.75
70867;HTU21D;58487;53.474;49.470;2023-01-16T02:32:10;-10.30;62.86
70867;HTU21D;58487;53.474;49.470;2023-01-16T02:34:18;-10.31;62.87
70867;HTU21D;58487;53.474;49.470;2023-01-16T02:40:03;-10.36;63.13
70867;HTU21D;58487;53.474;49.470;2023-01-16T02:48:45;-10.25;62.72
70867;HTU21D;58487;53.474;49.470;2023-01-16T02:51:45;-10.26;62.79
70867;HTU21D;58487;53.474;49.470;2023-01-16T02:54:32;-10.26;63.01
70867;HTU21D;58487;53.474;49.470;2023-01-16T02:57:07;-10.25;63.01
70867;HTU21D;58487;53.474;49.470;2023-01-16T02:59:34;-10.22;62.79
70867;HTU21D;58487;53.474;49.470;2023-01-16T03:02:01;-10.20;62.89
70867;HTU21D;58487;53.474;49.470;2023-01-16T03:04:53;-10.25;62.86
70867;HTU21D;58487;53.474;49.470;2023-01-16T03:07:41;-10.32;62.70
70867;HTU21D;58487;53.474;49.470;2023-01-16T03:35:21;-11.09;63.73
70867;HTU21D;58487;53.474;49.470;2023-01-16T03:37:57;-11.16;63.84
70867;HTU21D;58487;53.474;49.470;2023-01-16T03:40:28;-11.19;64.08
70867;HTU21D;58487;53.474;49.470;2023-01-16T03:43:04;-11.31;64.74
70867;HTU21D;58487;53.474;49.470;2023-01-16T03:45:56;-11.34;64.62
70867;HTU21D;58487;53.474;49.470;2023-01-16T03:51:30;-11.40;64.92
70867;HTU21D;58487;53.474;49.470;2023-01-16T03:59:33;-11.27;64.50
70867;HTU21D;58487;53.474;49.470;2023-01-16T04:02:27;-11.40;64.80
70867;HTU21D;58487;53.474;49.470;2023-01-16T04:05:15;-11.53;65.24
70867;HTU21D;58487;53.474;49.470;2023-01-16T04:07:50;-11.62;65.50
70867;HTU21D;58487;53.474;49.470;2023-01-16T04:10:22;-11.61;65.86
70867;HTU21D;58487;53.474;49.470;2023-01-16T04:12:55;-11.63;65.74
70867;HTU21D;58487;53.474;49.470;2023-01-16T04:15:24;-11.71;65.87
70867;HTU21D;58487;53.474;49.470;2023-01-16T04:17:52;-11.74;66.18
70867;HTU21D;58487;53.474;49.470;2023-01-16T04:20:18;-11.70;66.20
70867;HTU21D;58487;53.474;49.470;2023-01-16T04:22:49;-11.71;66.08
70867;HTU21D;58487;53.474;49.470;2023-01-16T04:25:16;-11.70;65.99
70867;HTU21D;58487;53.474;49.470;2023-01-16T04:27:43;-11.68;66.20
70867;HTU21D;58487;53.474;49.470;2023-01-16T04:30:09;-11.66;65.97
70867;HTU21D;58487;53.474;49.470;2023-01-16T04:32:36;-11.63;66.04
70867;HTU21D;58487;53.474;49.470;2023-01-16T04:35:03;-11.64;66.20
70867;HTU21D;58487;53.474;49.470;2023-01-16T04:37:29;-11.66;66.14
70867;HTU21D;58487;53.474;49.470;2023-01-16T04:39:55;-11.56;66.36
70867;HTU21D;58487;53.474;49.470;2023-01-16T04:42:21;-11.41;65.89
70867;HTU21D;58487;53.474;49.470;2023-01-16T04:44:47;-11.39;65.34
70867;HTU21D;58487;53.474;49.470;2023-01-16T04:47:13;-11.44;65.09
70867;HTU21D;58487;53.474;49.470;2023-01-16T04:49:39;-11.48;65.66
70867;HTU21D;58487;53.474;49.470;2023-01-16T04:52:05;-11.53;65.40
70867;HTU21D;58487;53.474;49.470;2023-01-16T04:54:31;-11.49;65.75
70867;HTU21D;58487;53.474;49.470;2023-01-16T04:56:57;-11.44;65.14
70867;HTU21D;58487;53.474;49.470;2023-01-16T04:59:23;-11.44;64.52
70867;HTU21D;58487;53.474;49.470;2023-01-16T05:01:49;-11.47;64.45
70867;HTU21D;58487;53.474;49.470;2023-01-16T05:04:15;-11.46;64.48
70867;HTU21D;58487;53.474;49.470;2023-01-16T05:06:41;-11.40;64.13
70867;HTU21D;58487;53.474;49.470;2023-01-16T05:09:08;-11.41;64.31
70867;HTU21D;58487;53.474;49.470;2023-01-16T05:11:34;-11.36;64.05
70867;HTU21D;58487;53.474;49.470;2023-01-16T05:14:00;-11.34;64.12
70867;HTU21D;58487;53.474;49.470;2023-01-16T05:16:27;-11.29;63.90
70867;HTU21D;58487;53.474;49.470;2023-01-16T05:18:53;-11.25;63.58
70867;HTU21D;58487;53.474;49.470;2023-01-16T05:21:19;-11.24;63.79
70867;HTU21D;58487;53.474;49.470;2023-01-16T05:23:45;-11.17;63.19
70867;HTU21D;58487;53.474;49.470;2023-01-16T05:26:11;-11.22;63.32
70867;HTU21D;58487;53.474;49.470;2023-01-16T05:28:37;-11.33;63.68
70867;HTU21D;58487;53.474;49.470;2023-01-16T05:31:03;-11.33;63.56
70867;HTU21D;58487;53.474;49.470;2023-01-16T05:33:29;-11.37;63.85
70867;HTU21D;58487;53.474;49.470;2023-01-16T05:35:56;-11.33;63.78
70867;HTU21D;58487;53.474;49.470;2023-01-16T05:38:22;-11.24;63.39
70867;HTU21D;58487;53.474;49.470;2023-01-16T05:40:48;-11.19;62.91
70867;HTU21D;58487;53.474;49.470;2023-01-16T05:43:15;-11.19;62.94
70867;HTU21D;58487;53.474;49.470;2023-01-16T05:45:41;-11.15;62.89
70867;HTU21D;58487;53.474;49.470;2023-01-16T05:48:07;-11.14;63.00
70867;HTU21D;58487;53.474;49.470;2023-01-16T05:50:33;-11.15;63.01
70867;HTU21D;58487;53.474;49.470;2023-01-16T05:52:59;-11.04;63.39
70867;HTU21D;58487;53.474;49.470;2023-01-16T05:55:25;-11.12;62.57
70867;HTU21D;58487;53.474;49.470;2023-01-16T05:57:51;-11.12;62.74
70867;HTU21D;58487;53.474;49.470;2023-01-16T06:00:18;-11.03;62.52
70867;HTU21D;58487;53.474;49.470;2023-01-16T06:02:44;-11.06;62.44
70867;HTU21D;58487;53.474;49.470;2023-01-16T06:05:12;-10.97;62.00
70867;HTU21D;58487;53.474;49.470;2023-01-16T06:07:38;-10.97;62.10
70867;HTU21D;58487;53.474;49.470;2023-01-16T06:10:06;-10.85;61.62
70867;HTU21D;58487;53.474;49.470;2023-01-16T06:12:32;-10.78;61.57
70867;HTU21D;58487;53.474;49.470;2023-01-16T06:14:58;-10.73;61.30
70867;HTU21D;58487;53.474;49.470;2023-01-16T06:17:24;-10.73;61.67
70867;HTU21D;58487;53.474;49.470;2023-01-16T06:19:50;-10.79;61.58
70867;HTU21D;58487;53.474;49.470;2023-01-16T06:22:16;-10.65;61.60
70867;HTU21D;58487;53.474;49.470;2023-01-16T06:24:42;-10.65;61.10
70867;HTU21D;58487;53.474;49.470;2023-01-16T06:27:09;-10.46;60.70
70867;HTU21D;58487;53.474;49.470;2023-01-16T06:29:35;-10.41;60.71
70867;HTU21D;58487;53.474;49.470;2023-01-16T06:32:02;-10.28;59.94
70867;HTU21D;58487;53.474;49.470;2023-01-16T06:34:28;-10.29;59.51
70867;HTU21D;58487;53.474;49.470;2023-01-16T06:36:54;-10.29;59.76
70867;HTU21D;58487;53.474;49.470;2023-01-16T06:39:20;-10.16;59.41
70867;HTU21D;58487;53.474;49.470;2023-01-16T06:41:46;-10.04;59.57
70867;HTU21D;58487;53.474;49.470;2023-01-16T06:44:12;-10.05;59.09
70867;HTU21D;58487;53.474;49.470;2023-01-16T06:46:38;-10.20;59.84
70867;HTU21D;58487;53.474;49.470;2023-01-16T06:49:04;-10.04;59.38
70867;HTU21D;58487;53.474;49.470;2023-01-16T06:51:30;-9.96;58.58
70867;HTU21D;58487;53.474;49.470;2023-01-16T06:53:56;-9.87;58.33
70867;HTU21D;58487;53.474;49.470;2023-01-16T06:56:22;-9.98;58.41
70867;HTU21D;58487;53.474;49.470;2023-01-16T06:58:49;-9.96;58.16
70867;HTU21D;58487;53.474;49.470;2023-01-16T07:01:15;-10.00;58.47
70867;HTU21D;58487;53.474;49.470;2023-01-16T07:03:41;-9.96;58.44
70867;HTU21D;58487;53.474;49.470;2023-01-16T07:06:07;-10.06;58.73
70867;HTU21D;58487;53.474;49.470;2023-01-16T07:08:33;-9.92;58.31
70867;HTU21D;58487;53.474;49.470;2023-01-16T07:11:00;-9.90;58.51
70867;HTU21D;58487;53.474;49.470;2023-01-16T07:13:26;-9.91;58.60
70867;HTU21D;58487;53.474;49.470;2023-01-16T07:15:55;-9.85;58.58
70867;HTU21D;58487;53.474;49.470;2023-01-16T07:18:40;-9.83;57.96
70867;HTU21D;58487;53.474;49.470;2023-01-16T07:21:36;-9.82;57.91
70867;HTU21D;58487;53.474;49.470;2023-01-16T07:24:24;-9.69;57.70
70867;HTU21D;58487;53.474;49.470;2023-01-16T07:26:54;-9.70;57.21
70867;HTU21D;58487;53.474;49.470;2023-01-16T07:29:24;-9.76;57.19
70867;HTU21D;58487;53.474;49.470;2023-01-16T07:31:50;-9.83;57.44
70867;HTU21D;58487;53.474;49.470;2023-01-16T07:34:16;-9.89;57.81
70867;HTU21D;58487;53.474;49.470;2023-01-16T07:36:43;-9.92;57.79
70867;HTU21D;58487;53.474;49.470;2023-01-16T07:39:09;-9.93;58.59
70867;HTU21D;58487;53.474;49.470;2023-01-16T07:41:35;-9.89;58.58
70867;HTU21D;58487;53.474;49.470;2023-01-16T07:44:00;-9.86;59.27
70867;HTU21D;58487;53.474;49.470;2023-01-16T07:46:27;-9.71;58.67
70867;HTU21D;58487;53.474;49.470;2023-01-16T07:48:52;-9.55;58.71
70867;HTU21D;58487;53.474;49.470;2023-01-16T07:51:20;-9.52;57.32
70867;HTU21D;58487;53.474;49.470;2023-01-16T07:53:46;-9.43;57.44
70867;HTU21D;58487;53.474;49.470;2023-01-16T07:56:13;-9.37;56.67
70867;HTU21D;58487;53.474;49.470;2023-01-16T07:58:39;-9.22;56.48
70867;HTU21D;58487;53.474;49.470;2023-01-16T08:01:07;-9.31;56.48
70867;HTU21D;58487;53.474;49.470;2023-01-16T08:03:33;-9.33;56.98
70867;HTU21D;58487;53.474;49.470;2023-01-16T08:05:59;-9.20;56.39
70867;HTU21D;58487;53.474;49.470;2023-01-16T08:08:25;-9.20;56.84
70867;HTU21D;58487;53.474;49.470;2023-01-16T08:10:59;-9.15;56.56
70867;HTU21D;58487;53.474;49.470;2023-01-16T08:13:26;-9.22;57.04
70867;HTU21D;58487;53.474;49.470;2023-01-16T08:15:52;-9.20;56.71
70867;HTU21D;58487;53.474;49.470;2023-01-16T08:18:18;-9.19;56.89
70867;HTU21D;58487;53.474;49.470;2023-01-16T08:20:45;-9.16;56.90
70867;HTU21D;58487;53.474;49.470;2023-01-16T08:23:12;-9.11;56.00
70867;HTU21D;58487;53.474;49.470;2023-01-16T08:25:38;-9.18;57.01
70867;HTU21D;58487;53.474;49.470;2023-01-16T08:28:05;-9.00;55.49
70867;HTU21D;58487;53.474;49.470;2023-01-16T08:30:31;-8.93;55.65
70867;HTU21D;58487;53.474;49.470;2023-01-16T08:33:01;-9.08;55.28
70867;HTU21D;58487;53.474;49.470;2023-01-16T08:35:27;-9.09;56.11
70867;HTU21D;58487;53.474;49.470;2023-01-16T08:37:54;-9.11;55.39
70867;HTU21D;58487;53.474;49.470;2023-01-16T08:40:20;-9.15;56.34
70867;HTU21D;58487;53.474;49.470;2023-01-16T08:42:46;-9.14;57.12
70867;HTU21D;58487;53.474;49.470;2023-01-16T08:45:31;-9.04;57.03
70867;HTU21D;58487;53.474;49.470;2023-01-16T08:48:23;-9.00;56.29
70867;HTU21D;58487;53.474;49.470;2023-01-16T08:51:19;-8.97;55.36
70867;HTU21D;58487;53.474;49.470;2023-01-16T08:53:53;-9.00;56.31
70867;HTU21D;58487;53.474;49.470;2023-01-16T08:56:20;-8.97;55.92
70867;HTU21D;58487;53.474;49.470;2023-01-16T08:58:47;-8.92;55.97
70867;HTU21D;58487;53.474;49.470;2023-01-16T09:01:13;-8.87;55.21
70867;HTU21D;58487;53.474;49.470;2023-01-16T09:03:39;-8.87;54.87
70867;HTU21D;58487;53.474;49.470;2023-01-16T09:06:05;-8.82;54.91
70867;HTU21D;58487;53.474;49.470;2023-01-16T09:08:31;-8.74;55.36
70867;HTU21D;58487;53.474;49.470;2023-01-16T09:10:57;-8.69;55.23
70867;HTU21D;58487;53.474;49.470;2023-01-16T09:13:42;-8.69;54.90
70867;HTU21D;58487;53.474;49.470;2023-01-16T09:16:22;-8.67;56.08
70867;HTU21D;58487;53.474;49.470;2023-01-16T09:18:48;-8.64;56.32
70867;HTU21D;58487;53.474;49.470;2023-01-16T09:21:15;-8.54;55.41
70867;HTU21D;58487;53.474;49.470;2023-01-16T09:23:41;-8.45;54.37
70867;HTU21D;58487;53.474;49.470;2023-01-16T09:26:07;-8.39;54.26
70867;HTU21D;58487;53.474;49.470;2023-01-16T09:28:33;-8.40;54.17
70867;HTU21D;58487;53.474;49.470;2023-01-16T09:30:59;-8.40;55.02
70867;HTU21D;58487;53.474;49.470;2023-01-16T09:33:25;-8.42;54.41
70867;HTU21D;58487;53.474;49.470;2023-01-16T09:35:51;-8.26;53.65
70867;HTU21D;58487;53.474;49.470;2023-01-16T09:38:20;-8.01;52.37
70867;HTU21D;58487;53.474;49.470;2023-01-16T09:40:46;-7.85;52.69
70867;HTU21D;58487;53.474;49.470;2023-01-16T09:46:14;-7.46;51.30
70867;HTU21D;58487;53.474;49.470;2023-01-16T09:51:54;-7.60;53.15
70867;HTU21D;58487;53.474;49.470;2023-01-16T09:54:43;-7.46;53.13
70867;HTU21D;58487;53.474;49.470;2023-01-16T09:57:29;-7.34;51.72
70867;HTU21D;58487;53.474;49.470;2023-01-16T10:00:16;-7.06;49.85
70867;HTU21D;58487;53.474;49.470;2023-01-16T10:02:42;-6.72;48.71
70867;HTU21D;58487;53.474;49.470;2023-01-16T10:05:10;-6.79;48.69
70867;HTU21D;58487;53.474;49.470;2023-01-16T10:08:25;-6.07;47.09
70867;HTU21D;58487;53.474;49.470;2023-01-16T10:14:12;-5.56;46.12
70867;HTU21D;58487;53.474;49.470;2023-01-16T10:19:22;-4.95;45.42
70867;HTU21D;58487;53.474;49.470;2023-01-16T10:30:24;-4.52;41.98
70867;HTU21D;58487;53.474;49.470;2023-01-16T10:33:02;-4.36;41.62
70867;HTU21D;58487;53.474;49.470;2023-01-16T10:35:37;-4.09;40.88
70867;HTU21D;58487;53.474;49.470;2023-01-16T10:38:34;-3.94;40.37
70867;HTU21D;58487;53.474;49.470;2023-01-16T10:41:30;-4.75;43.20
70867;HTU21D;58487;53.474;49.470;2023-01-16T10:47:22;-4.96;43.17
70867;HTU21D;58487;53.474;49.470;2023-01-16T10:50:08;-4.60;41.94
70867;HTU21D;58487;53.474;49.470;2023-01-16T10:52:35;-4.40;41.07
70867;HTU21D;58487;53.474;49.470;2023-01-16T10:55:02;-4.22;40.55
70867;HTU21D;58487;53.474;49.470;2023-01-16T10:57:30;-3.84;38.88
70867;HTU21D;58487;53.474;49.470;2023-01-16T11:00:07;-4.07;39.61
70867;HTU21D;58487;53.474;49.470;2023-01-16T11:02:38;-4.20;39.78
70867;HTU21D;58487;53.474;49.470;2023-01-16T11:05:38;-4.06;39.18
70867;HTU21D;58487;53.474;49.470;2023-01-16T11:08:10;-3.79;38.75
70867;HTU21D;58487;53.474;49.470;2023-01-16T11:10:39;-3.83;39.45
70867;HTU21D;58487;53.474;49.470;2023-01-16T11:13:05;-3.42;38.96
70867;HTU21D;58487;53.474;49.470;2023-01-16T11:16:04;-3.38;38.80
70867;HTU21D;58487;53.474;49.470;2023-01-16T11:18:49;-3.05;38.04
70867;HTU21D;58487;53.474;49.470;2023-01-16T11:21:31;-2.96;37.56
70867;HTU21D;58487;53.474;49.470;2023-01-16T11:24:00;-3.18;38.88
70867;HTU21D;58487;53.474;49.470;2023-01-16T11:26:32;-3.57;39.23
70867;HTU21D;58487;53.474;49.470;2023-01-16T11:28:59;-3.18;38.34
70867;HTU21D;58487;53.474;49.470;2023-01-16T11:31:27;-3.39;38.50
70867;HTU21D;58487;53.474;49.470;2023-01-16T11:34:11;-3.82;39.34
70867;HTU21D;58487;53.474;49.470;2023-01-16T11:36:38;-4.31;41.65
70867;HTU21D;58487;53.474;49.470;2023-01-16T11:39:06;-4.40;40.94
70867;HTU21D;58487;53.474;49.470;2023-01-16T11:41:36;-4.41;40.59
70867;HTU21D;58487;53.474;49.470;2023-01-16T11:44:13;-4.26;40.18
70867;HTU21D;58487;53.474;49.470;2023-01-16T11:47:03;-4.00;38.73
70867;HTU21D;58487;53.474;49.470;2023-01-16T11:52:00;-3.50;37.55
70867;HTU21D;58487;53.474;49.470;2023-01-16T11:54:33;-3.61;37.43
70867;HTU21D;58487;53.474;49.470;2023-01-16T11:57:14;-3.28;36.99
70867;HTU21D;58487;53.474;49.470;2023-01-16T12:02:41;-3.60;37.08
70867;HTU21D;58487;53.474;49.470;2023-01-16T12:05:20;-3.16;36.24
70867;HTU21D;58487;53.474;49.470;2023-01-16T12:13:22;-4.08;38.30
70867;HTU21D;58487;53.474;49.470;2023-01-16T12:16:54;-3.93;37.73
70867;HTU21D;58487;53.474;49.470;2023-01-16T12:32:59;-4.96;40.27
70867;HTU21D;58487;53.474;49.470;2023-01-16T12:35:45;-5.27;40.26
70867;HTU21D;58487;53.474;49.470;2023-01-16T12:38:37;-5.28;40.48
70867;HTU21D;58487;53.474;49.470;2023-01-16T12:41:14;-5.45;40.94
70867;HTU21D;58487;53.474;49.470;2023-01-16T12:44:21;-5.79;42.02
70867;HTU21D;58487;53.474;49.470;2023-01-16T12:50:11;-6.15;43.29
70867;HTU21D;58487;53.474;49.470;2023-01-16T12:56:15;-6.70;44.42
70867;HTU21D;58487;53.474;49.470;2023-01-16T12:58:50;-6.64;44.05
70867;HTU21D;58487;53.474;49.470;2023-01-16T13:01:21;-6.79;44.05
70867;HTU21D;58487;53.474;49.470;2023-01-16T13:04:02;-6.88;44.61
70867;HTU21D;58487;53.474;49.470;2023-01-16T13:06:39;-7.00;45.54
70867;HTU21D;58487;53.474;49.470;2023-01-16T13:09:22;-7.04;45.38
70867;HTU21D;58487;53.474;49.470;2023-01-16T13:12:00;-6.94;45.30
70867;HTU21D;58487;53.474;49.470;2023-01-16T13:14:50;-7.07;44.53
70867;HTU21D;58487;53.474;49.470;2023-01-16T13:17:26;-7.42;46.75
70867;HTU21D;58487;53.474;49.470;2023-01-16T13:19:59;-7.61;46.71
70867;HTU21D;58487;53.474;49.470;2023-01-16T13:22:34;-7.48;47.45
70867;HTU21D;58487;53.474;49.470;2023-01-16T13:25:21;-7.40;47.39
70867;HTU21D;58487;53.474;49.470;2023-01-16T13:28:02;-7.39;47.09
70867;HTU21D;58487;53.474;49.470;2023-01-16T13:30:31;-7.38;47.29
70867;HTU21D;58487;53.474;49.470;2023-01-16T13:33:11;-7.41;47.43
70867;HTU21D;58487;53.474;49.470;2023-01-16T13:35:43;-7.46;47.14
70867;HTU21D;58487;53.474;49.470;2023-01-16T13:41:36;-7.67;47.86
70867;HTU21D;58487;53.474;49.470;2023-01-16T13:44:21;-7.77;48.65
70867;HTU21D;58487;53.474;49.470;2023-01-16T13:47:10;-7.64;48.83
70867;HTU21D;58487;53.474;49.470;2023-01-16T13:49:38;-7.66;48.86
70867;HTU21D;58487;53.474;49.470;2023-01-16T13:52:16;-7.64;48.74
70867;HTU21D;58487;53.474;49.470;2023-01-16T13:54:44;-7.79;49.12
70867;HTU21D;58487;53.474;49.470;2023-01-16T13:57:18;-7.87;49.81
70867;HTU21D;58487;53.474;49.470;2023-01-16T14:00:22;-8.06;50.59
70867;HTU21D;58487;53.474;49.470;2023-01-16T14:03:19;-8.13;50.47
70867;HTU21D;58487;53.474;49.470;2023-01-16T14:05:49;-8.01;50.71
70867;HTU21D;58487;53.474;49.470;2023-01-16T14:17:28;-7.98;49.95
70867;HTU21D;58487;53.474;49.470;2023-01-16T14:23:03;-7.96;49.83
70867;HTU21D;58487;53.474;49.470;2023-01-16T14:25:55;-7.91;49.64
70867;HTU21D;58487;53.474;49.470;2023-01-16T14:28:22;-8.06;49.61
70867;HTU21D;58487;53.474;49.470;2023-01-16T14:30:48;-7.91;49.70
70867;HTU21D;58487;53.474;49.470;2023-01-16T14:33:18;-7.91;50.06
70867;HTU21D;58487;53.474;49.470;2023-01-16T14:35:49;-7.89;50.05
70867;HTU21D;58487;53.474;49.470;2023-01-16T14:38:20;-7.90;49.98
70867;HTU21D;58487;53.474;49.470;2023-01-16T14:40:55;-7.93;49.96
70867;HTU21D;58487;53.474;49.470;2023-01-16T14:44:10;-7.96;50.27
70867;HTU21D;58487;53.474;49.470;2023-01-16T14:47:25;-7.91;50.34
70867;HTU21D;58487;53.474;49.470;2023-01-16T14:58:59;-8.00;50.21
70867;HTU21D;58487;53.474;49.470;2023-01-16T15:01:53;-8.06;50.63
70867;HTU21D;58487;53.474;49.470;2023-01-16T15:07:45;-8.09;50.44
70867;HTU21D;58487;53.474;49.470;2023-01-16T15:12:51;-7.96;50.10
70867;HTU21D;58487;53.474;49.470;2023-01-16T15:15:27;-7.97;49.73
70867;HTU21D;58487;53.474;49.470;2023-01-16T15:17:58;-7.98;49.66
70867;HTU21D;58487;53.474;49.470;2023-01-16T15:20:45;-8.15;49.90
70867;HTU21D;58487;53.474;49.470;2023-01-16T15:23:35;-8.22;49.89
70867;HTU21D;58487;53.474;49.470;2023-01-16T15:26:08;-8.26;50.09
70867;HTU21D;58487;53.474;49.470;2023-01-16T15:33:35;-8.30;49.30
70867;HTU21D;58487;53.474;49.470;2023-01-16T15:36:19;-8.26;49.21
70867;HTU21D;58487;53.474;49.470;2023-01-16T15:38:48;-8.26;49.18
70867;HTU21D;58487;53.474;49.470;2023-01-16T15:41:18;-8.35;49.79
70867;HTU21D;58487;53.474;49.470;2023-01-16T15:43:45;-8.45;50.05
70867;HTU21D;58487;53.474;49.470;2023-01-16T15:51:40;-8.39;49.67
70867;HTU21D;58487;53.474;49.470;2023-01-16T15:54:13;-8.44;50.44
70867;HTU21D;58487;53.474;49.470;2023-01-16T15:56:44;-8.50;50.66
70867;HTU21D;58487;53.474;49.470;2023-01-16T15:59:50;-8.49;50.63
70867;HTU21D;58487;53.474;49.470;2023-01-16T16:02:26;-8.51;50.93
70867;HTU21D;58487;53.474;49.470;2023-01-16T16:04:59;-8.56;51.64
70867;HTU21D;58487;53.474;49.470;2023-01-16T16:07:27;-8.52;51.06
70867;HTU21D;58487;53.474;49.470;2023-01-16T16:09:59;-8.45;51.12
70867;HTU21D;58487;53.474;49.470;2023-01-16T16:12:27;-8.51;51.19
70867;HTU21D;58487;53.474;49.470;2023-01-16T16:15:21;-8.57;50.93
70867;HTU21D;58487;53.474;49.470;2023-01-16T16:18:16;-8.55;51.24
70867;HTU21D;58487;53.474;49.470;2023-01-16T16:20:43;-8.57;50.67
70867;HTU21D;58487;53.474;49.470;2023-01-16T16:23:15;-8.75;51.00
70867;HTU21D;58487;53.474;49.470;2023-01-16T16:25:52;-8.92;51.68
70867;HTU21D;58487;53.474;49.470;2023-01-16T16:31:20;-8.92;51.90
70867;HTU21D;58487;53.474;49.470;2023-01-16T16:34:13;-8.88;52.00
70867;HTU21D;58487;53.474;49.470;2023-01-16T16:36:43;-8.97;52.18
70867;HTU21D;58487;53.474;49.470;2023-01-16T16:47:36;-8.89;51.68
70867;HTU21D;58487;53.474;49.470;2023-01-16T16:50:35;-9.07;51.52
70867;HTU21D;58487;53.474;49.470;2023-01-16T16:53:15;-9.16;51.75
70867;HTU21D;58487;53.474;49.470;2023-01-16T16:55:46;-9.09;51.62
70867;HTU21D;58487;53.474;49.470;2023-01-16T16:58:19;-8.99;51.08
70867;HTU21D;58487;53.474;49.470;2023-01-16T17:00:46;-9.01;51.25
70867;HTU21D;58487;53.474;49.470;2023-01-16T17:03:16;-9.16;51.27
70867;HTU21D;58487;53.474;49.470;2023-01-16T17:05:44;-9.16;51.48
70867;HTU21D;58487;53.474;49.470;2023-01-16T17:08:16;-9.33;51.70
70867;HTU21D;58487;53.474;49.470;2023-01-16T17:10:42;-9.62;52.47
70867;HTU21D;58487;53.474;49.470;2023-01-16T17:13:15;-9.71;53.50
70867;HTU21D;58487;53.474;49.470;2023-01-16T17:15:42;-9.79;53.28
70867;HTU21D;58487;53.474;49.470;2023-01-16T17:18:10;-9.84;53.46
70867;HTU21D;58487;53.474;49.470;2023-01-16T17:20:36;-9.83;53.51
70867;HTU21D;58487;53.474;49.470;2023-01-16T17:23:12;-9.85;53.40
70867;HTU21D;58487;53.474;49.470;2023-01-16T17:25:39;-9.89;53.06
70867;HTU21D;58487;53.474;49.470;2023-01-16T17:28:06;-9.92;53.14
70867;HTU21D;58487;53.474;49.470;2023-01-16T17:30:32;-9.93;52.88
70867;HTU21D;58487;53.474;49.470;2023-01-16T17:33:11;-9.98;53.62
70867;HTU21D;58487;53.474;49.470;2023-01-16T17:35:41;-10.06;54.16
70867;HTU21D;58487;53.474;49.470;2023-01-16T17:38:18;-10.20;54.71
70867;HTU21D;58487;53.474;49.470;2023-01-16T17:40:53;-10.28;55.33
70867;HTU21D;58487;53.474;49.470;2023-01-16T17:43:29;-10.30;56.11
70867;HTU21D;58487;53.474;49.470;2023-01-16T17:46:33;-10.40;56.26
70867;HTU21D;58487;53.474;49.470;2023-01-16T17:48:59;-10.38;55.71
70867;HTU21D;58487;53.474;49.470;2023-01-16T17:51:25;-10.45;56.48
70867;HTU21D;58487;53.474;49.470;2023-01-16T17:53:52;-10.46;56.10
70867;HTU21D;58487;53.474;49.470;2023-01-16T17:56:20;-10.55;56.77
70867;HTU21D;58487;53.474;49.470;2023-01-16T17:58:47;-10.65;57.01
70867;HTU21D;58487;53.474;49.470;2023-01-16T18:01:30;-10.71;56.25
70867;HTU21D;58487;53.474;49.470;2023-01-16T18:04:01;-10.71;57.45
70867;HTU21D;58487;53.474;49.470;2023-01-16T18:06:27;-10.72;57.58
70867;HTU21D;58487;53.474;49.470;2023-01-16T18:08:55;-10.76;56.95
70867;HTU21D;58487;53.474;49.470;2023-01-16T18:11:22;-10.77;56.60
70867;HTU21D;58487;53.474;49.470;2023-01-16T18:14:10;-10.71;56.03